Time;durP1;ratioP1;P1;durP2;ratioP2;P2;SDS_P1;SDS_P2;PMS_P1;PMS_P2;Temp;Humidity;BMP_temperature;BMP_pressure;BME280_temperature;BME280_humidity;BME280_pressure;Samples;Min_cycle;Max_cycle;Signal;HPM_P1;HPM_P2
2023/01/28 00:01:10;;;;;;;13.05;4.97;;;;;;;;;;6091096;23;20131;-62
2023/01/28 00:03:43;;;;;;;18.25;4.80;;;;;;;;;;6089480;23;20286;-62
2023/01/28 00:06:14;;;;;;;18.05;4.78;;;;;;;;;;6091122;23;20026;-61
2023/01/28 00:08:48;;;;;;;17.40;4.65;;;;;;;;;;6089955;23;20093;-66
2023/01/28 00:11:15;;;;;;;19.50;4.45;;;;;;;;;;6091515;23;20026;-59
2023/01/28 00:13:42;;;;;;;17.67;4.88;;;;;;;;;;6063929;23;20097;-59
2023/01/28 00:16:22;;;;;;;15.82;4.80;;;;;;;;;;6092776;23;20838;-59
2023/01/28 00:18:56;;;;;;;24.63;4.53;;;;;;;;;;6119088;23;20064;-59
2023/01/28 00:21:30;;;;;;;17.17;4.75;;;;;;;;;;6148471;23;20136;-59
2023/01/28 00:23:57;;;;;;;19.33;4.85;;;;;;;;;;6149262;23;20149;-59
2023/01/28 00:26:25;;;;;;;10.25;4.05;;;;;;;;;;6149640;23;20021;-46
2023/01/28 00:28:58;;;;;;;21.63;4.53;;;;;;;;;;6149000;23;20033;-71
2023/01/28 00:31:26;;;;;;;13.30;3.70;;;;;;;;;;6150203;23;20076;-70
2023/01/28 00:34:00;;;;;;;15.00;3.90;;;;;;;;;;6149110;23;20483;-71
2023/01/28 00:36:27;;;;;;;20.48;4.53;;;;;;;;;;6149824;23;20101;-71
2023/01/28 00:38:55;;;;;;;15.23;3.72;;;;;;;;;;6148081;23;20478;-70
2023/01/28 00:41:29;;;;;;;20.50;4.13;;;;;;;;;;6148860;23;20108;-72
2023/01/28 00:43:56;;;;;;;23.35;4.82;;;;;;;;;;6149174;23;20487;-71
2023/01/28 00:46:31;;;;;;;19.48;4.68;;;;;;;;;;6149242;23;20100;-55
2023/01/28 00:48:58;;;;;;;13.38;4.05;;;;;;;;;;6148319;23;20100;-51
2023/01/28 00:51:25;;;;;;;11.50;4.38;;;;;;;;;;6149770;23;20136;-51
2023/01/28 00:53:59;;;;;;;20.40;4.20;;;;;;;;;;6148347;23;20507;-51
2023/01/28 00:56:26;;;;;;;19.38;4.47;;;;;;;;;;6148404;23;20053;-52
2023/01/28 00:59:00;;;;;;;28.92;3.92;;;;;;;;;;6148925;23;20018;-55
2023/01/28 01:01:27;;;;;;;10.32;3.45;;;;;;;;;;6149562;23;20108;-53
2023/01/28 01:04:01;;;;;;;15.23;3.97;;;;;;;;;;6147843;23;20064;-58
2023/01/28 01:06:36;;;;;;;12.05;3.40;;;;;;;;;;6148924;23;20031;-57
2023/01/28 01:09:04;;;;;;;18.75;4.40;;;;;;;;;;6148883;23;20049;-58
2023/01/28 01:11:38;;;;;;;15.90;4.13;;;;;;;;;;6147645;23;20804;-60
2023/01/28 01:14:05;;;;;;;21.92;4.50;;;;;;;;;;6122504;23;20104;-58
2023/01/28 01:16:34;;;;;;;;;;;;;;;;;;6135247;23;20053;-59
2023/01/28 01:19:15;;;;;;;17.80;3.53;;;;;;;;;;6089067;23;20004;-58
2023/01/28 01:21:42;;;;;;;16.20;3.92;;;;;;;;;;6089611;23;20028;-70
2023/01/28 01:24:17;;;;;;;15.95;3.83;;;;;;;;;;6091150;23;20049;-70
2023/01/28 01:26:44;;;;;;;14.30;3.80;;;;;;;;;;6090321;23;20033;-71
2023/01/28 01:29:11;;;;;;;17.48;3.63;;;;;;;;;;6091375;23;20060;-71
2023/01/28 01:31:44;;;;;;;13.68;3.63;;;;;;;;;;6092916;23;20262;-71
2023/01/28 01:34:12;;;;;;;21.25;4.15;;;;;;;;;;6091819;23;20022;-71
2023/01/28 01:36:46;;;;;;;14.07;5.03;;;;;;;;;;6092878;23;20101;-70
2023/01/28 01:39:13;;;;;;;20.13;4.03;;;;;;;;;;6092377;23;20069;-70
2023/01/28 01:41:40;;;;;;;17.20;3.92;;;;;;;;;;6091077;23;20424;-53
2023/01/28 01:44:32;;;;;;;23.20;4.55;;;;;;;;;;6092356;23;20058;-72
2023/01/28 01:47:00;;;;;;;17.58;3.97;;;;;;;;;;6092206;23;20216;-71
2023/01/28 01:49:34;;;;;;;18.05;3.30;;;;;;;;;;6090844;23;20019;-71
2023/01/28 01:52:08;;;;;;;21.30;3.53;;;;;;;;;;6091996;23;20484;-72
2023/01/28 01:54:44;;;;;;;17.65;3.85;;;;;;;;;;6091632;23;20029;-72
2023/01/28 01:57:14;;;;;;;10.65;3.40;;;;;;;;;;6092555;23;20050;-72
2023/01/28 01:59:48;;;;;;;16.73;4.03;;;;;;;;;;6092193;23;20032;-57
2023/01/28 02:02:15;;;;;;;16.95;3.38;;;;;;;;;;6092225;23;20482;-60
2023/01/28 02:04:49;;;;;;;16.45;3.35;;;;;;;;;;6090469;23;20401;-61
2023/01/28 02:07:16;;;;;;;15.63;2.97;;;;;;;;;;6092109;23;20028;-61
2023/01/28 02:09:44;;;;;;;13.23;3.30;;;;;;;;;;6091918;23;20023;-61
2023/01/28 02:12:20;;;;;;;19.63;3.03;;;;;;;;;;6091483;23;20525;-61
2023/01/28 02:14:53;;;;;;;16.70;3.20;;;;;;;;;;6091869;23;20037;-60
2023/01/28 02:17:40;;;;;;;15.27;2.95;;;;;;;;;;6107950;23;20041;-67
2023/01/28 02:20:40;;;;;;;17.80;2.83;;;;;;;;;;6120472;23;20049;-61
2023/01/28 02:23:17;;;;;;;11.18;2.65;;;;;;;;;;6121408;23;20096;-61
2023/01/28 02:26:03;;;;;;;20.25;3.00;;;;;;;;;;6150765;23;20056;-60
2023/01/28 02:28:43;;;;;;;19.63;3.03;;;;;;;;;;6149966;23;20100;-61
2023/01/28 02:31:22;;;;;;;21.33;3.08;;;;;;;;;;6148972;23;20061;-60
2023/01/28 02:33:57;;;;;;;10.40;2.38;;;;;;;;;;6148864;23;20029;-60
2023/01/28 02:36:30;;;;;;;11.90;2.60;;;;;;;;;;6147664;23;20032;-53
2023/01/28 02:39:09;;;;;;;18.45;2.95;;;;;;;;;;6149748;23;20045;-73
2023/01/28 02:41:45;;;;;;;23.73;2.97;;;;;;;;;;6149502;23;20075;-72
2023/01/28 02:44:19;;;;;;;15.60;3.13;;;;;;;;;;6144855;23;20027;-73
2023/01/28 02:49:41;;;;;;;11.80;2.88;;;;;;;;;;6142705;23;20021;-72
2023/01/28 02:52:19;;;;;;;18.15;3.40;;;;;;;;;;6150233;23;20555;-72
2023/01/28 02:54:58;;;;;;;23.90;3.42;;;;;;;;;;6145429;23;20430;-54
2023/01/28 02:57:25;;;;;;;14.35;3.45;;;;;;;;;;6150988;23;20096;-52
2023/01/28 03:00:01;;;;;;;14.85;3.08;;;;;;;;;;6149664;23;20552;-51
2023/01/28 03:02:44;;;;;;;19.02;2.75;;;;;;;;;;6149644;23;20029;-52
2023/01/28 03:05:29;;;;;;;18.15;2.83;;;;;;;;;;6144641;23;20025;-54
2023/01/28 03:09:21;;;;;;;15.27;2.85;;;;;;;;;;6149496;23;20053;-53
2023/01/28 03:36:49;;;;;;;19.95;3.33;;;;;;;;;;6090965;23;20800;-57
2023/01/28 03:39:24;;;;;;;14.90;3.22;;;;;;;;;;6085981;23;20105;-58
2023/01/28 03:41:55;;;;;;;19.58;3.13;;;;;;;;;;6090632;23;20026;-58
2023/01/28 03:47:14;;;;;;;9.27;2.70;;;;;;;;;;6078977;23;20041;-57
2023/01/28 03:49:49;;;;;;;14.25;3.03;;;;;;;;;;6089770;23;20030;-72
2023/01/28 03:52:18;;;;;;;18.70;3.20;;;;;;;;;;6090762;23;20398;-58
2023/01/28 03:54:47;;;;;;;12.93;3.17;;;;;;;;;;6090043;23;20562;-58
2023/01/28 03:57:25;;;;;;;20.52;2.80;;;;;;;;;;6090301;23;20464;-57
2023/01/28 03:59:52;;;;;;;14.43;2.75;;;;;;;;;;6090457;23;20077;-57
2023/01/28 04:02:27;;;;;;;12.30;2.78;;;;;;;;;;6089567;23;20022;-57
2023/01/28 04:05:05;;;;;;;14.75;2.92;;;;;;;;;;6090467;23;20074;-58
2023/01/28 04:07:40;;;;;;;10.45;2.72;;;;;;;;;;6090728;23;20071;-66
2023/01/28 04:10:08;;;;;;;15.02;3.30;;;;;;;;;;6088695;23;20060;-55
2023/01/28 04:12:36;;;;;;;18.05;2.90;;;;;;;;;;6091017;23;20061;-53
2023/01/28 04:15:16;;;;;;;22.27;3.70;;;;;;;;;;6091064;23;20484;-55
2023/01/28 04:17:50;;;;;;;24.15;4.10;;;;;;;;;;6107129;23;20476;-51
2023/01/28 04:20:25;;;;;;;15.15;3.00;;;;;;;;;;6118920;23;20116;-54
2023/01/28 04:22:52;;;;;;;19.92;3.70;;;;;;;;;;6120526;23;20049;-54
2023/01/28 04:25:19;;;;;;;22.33;3.50;;;;;;;;;;6119325;23;20101;-67
2023/01/28 04:27:53;;;;;;;21.55;3.35;;;;;;;;;;6120792;23;20319;-67
2023/01/28 04:30:20;;;;;;;23.90;4.03;;;;;;;;;;6120159;23;20065;-67
2023/01/28 04:32:54;;;;;;;18.60;3.72;;;;;;;;;;6119106;23;20357;-67
2023/01/28 04:35:21;;;;;;;26.70;3.67;;;;;;;;;;6119454;23;20022;-67
2023/01/28 04:37:48;;;;;;;15.93;4.07;;;;;;;;;;6119728;23;20029;-66
2023/01/28 04:40:22;;;;;;;15.93;4.03;;;;;;;;;;6118765;23;20100;-67
2023/01/28 04:42:53;;;;;;;24.58;4.38;;;;;;;;;;6118224;23;20477;-67
2023/01/28 04:45:27;;;;;;;16.63;3.47;;;;;;;;;;6118850;23;20064;-60
2023/01/28 04:47:54;;;;;;;24.52;4.32;;;;;;;;;;6119487;23;20078;-67
2023/01/28 04:50:21;;;;;;;16.50;3.30;;;;;;;;;;6118647;23;20408;-67
2023/01/28 04:52:55;;;;;;;19.80;4.53;;;;;;;;;;6119780;23;20105;-67
2023/01/28 04:55:22;;;;;;;22.40;3.90;;;;;;;;;;6119946;23;20415;-67
2023/01/28 04:57:56;;;;;;;15.30;3.15;;;;;;;;;;6120517;23;20032;-67
2023/01/28 05:00:23;;;;;;;12.18;3.97;;;;;;;;;;6118360;23;20113;-67
2023/01/28 05:02:50;;;;;;;18.63;3.75;;;;;;;;;;6118040;23;20105;-66
2023/01/28 05:05:24;;;;;;;28.00;4.88;;;;;;;;;;6108437;23;20061;-54
2023/01/28 05:07:52;;;;;;;17.67;4.00;;;;;;;;;;6118925;23;20097;-56
2023/01/28 05:10:27;;;;;;;24.63;3.42;;;;;;;;;;6094955;23;20116;-53
2023/01/28 05:12:54;;;;;;;17.15;3.63;;;;;;;;;;6119913;23;20026;-52
2023/01/28 05:15:21;;;;;;;20.02;3.67;;;;;;;;;;6118797;23;20341;-50
2023/01/28 05:18:07;;;;;;;23.25;4.18;;;;;;;;;;6118899;23;20419;-54
2023/01/28 05:20:42;;;;;;;25.13;4.55;;;;;;;;;;6119099;23;20062;-50
2023/01/28 05:23:16;;;;;;;20.70;4.07;;;;;;;;;;6118501;23;20397;-52
2023/01/28 05:25:44;;;;;;;26.15;4.07;;;;;;;;;;6117831;23;20025;-53
2023/01/28 05:28:11;;;;;;;22.88;4.00;;;;;;;;;;6119607;23;20527;-51
2023/01/28 05:30:45;;;;;;;25.05;4.53;;;;;;;;;;6147465;23;20056;-51
2023/01/28 05:33:12;;;;;;;16.38;4.80;;;;;;;;;;6149627;23;20435;-50
2023/01/28 05:35:46;;;;;;;18.52;4.07;;;;;;;;;;6148597;23;20100;-52
2023/01/28 05:38:13;;;;;;;26.38;4.28;;;;;;;;;;6147903;23;20061;-53
2023/01/28 05:40:41;;;;;;;25.08;4.22;;;;;;;;;;6148370;23;20754;-60
2023/01/28 05:43:15;;;;;;;21.65;3.92;;;;;;;;;;6146630;23;20045;-60
2023/01/28 05:45:42;;;;;;;32.53;4.88;;;;;;;;;;6145135;23;20097;-59
2023/01/28 05:48:16;;;;;;;57.00;7.63;;;;;;;;;;6149376;23;20021;-60
2023/01/28 05:50:50;;;;;;;24.50;5.25;;;;;;;;;;6144452;23;20025;-60
2023/01/28 05:53:24;;;;;;;38.38;4.60;;;;;;;;;;6148679;23;20100;-59
2023/01/28 05:55:54;;;;;;;21.58;4.00;;;;;;;;;;6147962;23;20517;-60
2023/01/28 05:58:22;;;;;;;23.23;4.45;;;;;;;;;;6149320;23;20025;-76
2023/01/28 06:00:56;;;;;;;26.98;4.60;;;;;;;;;;6148594;23;20506;-56
2023/01/28 06:03:23;;;;;;;23.25;4.30;;;;;;;;;;6148836;23;20057;-53
2023/01/28 06:05:57;;;;;;;25.67;4.60;;;;;;;;;;6147107;23;20022;-55
2023/01/28 06:08:24;;;;;;;19.42;4.00;;;;;;;;;;6147815;23;20411;-56
2023/01/28 06:10:51;;;;;;;20.67;3.88;;;;;;;;;;6148461;23;20137;-54
2023/01/28 06:13:25;;;;;;;20.48;4.50;;;;;;;;;;6151043;23;20108;-53
2023/01/28 06:15:52;;;;;;;33.22;4.65;;;;;;;;;;6148424;23;20613;-59
2023/01/28 06:18:19;;;;;;;19.92;5.15;;;;;;;;;;6109420;23;20023;-50
2023/01/28 06:20:53;;;;;;;30.65;6.90;;;;;;;;;;6090160;23;20132;-51
2023/01/28 06:23:20;;;;;;;29.27;4.57;;;;;;;;;;6091725;23;20088;-47
2023/01/28 06:25:55;;;;;;;26.50;4.72;;;;;;;;;;6092230;23;20030;-47
2023/01/28 06:28:23;;;;;;;22.50;5.22;;;;;;;;;;6091273;23;20101;-47
2023/01/28 06:30:50;;;;;;;25.98;4.28;;;;;;;;;;6091836;23;20030;-48
2023/01/28 06:33:24;;;;;;;24.02;4.78;;;;;;;;;;6092785;23;20252;-47
2023/01/28 06:35:51;;;;;;;39.70;5.28;;;;;;;;;;6091142;23;20030;-45
2023/01/28 06:38:25;;;;;;;21.60;3.92;;;;;;;;;;6091674;23;20069;-67
2023/01/28 06:40:54;;;;;;;27.92;5.13;;;;;;;;;;6090546;23;20022;-68
2023/01/28 06:43:26;;;;;;;23.48;4.00;;;;;;;;;;6091530;23;20030;-67
2023/01/28 06:45:59;;;;;;;;;;;;;;;;;;6091517;23;20026;-68
2023/01/28 06:48:27;;;;;;;25.75;3.90;;;;;;;;;;6090624;23;19921;-68
2023/01/28 06:51:01;;;;;;;24.02;4.75;;;;;;;;;;6090789;23;20066;-68
2023/01/28 06:53:28;;;;;;;21.27;4.53;;;;;;;;;;6088371;23;20420;-75
2023/01/28 06:55:55;;;;;;;28.48;4.63;;;;;;;;;;6091640;23;20544;-60
2023/01/28 06:58:29;;;;;;;21.92;4.63;;;;;;;;;;6091079;23;20041;-60
2023/01/28 07:00:56;;;;;;;26.55;4.72;;;;;;;;;;6090920;23;20082;-60
2023/01/28 07:03:30;;;;;;;23.00;4.97;;;;;;;;;;6090424;23;20105;-60
2023/01/28 07:05:57;;;;;;;20.73;5.07;;;;;;;;;;6090955;23;20061;-61
2023/01/28 07:08:24;;;;;;;30.20;4.88;;;;;;;;;;6091264;23;20030;-60
2023/01/28 07:10:58;;;;;;;30.88;4.70;;;;;;;;;;6091293;23;20101;-60
2023/01/28 07:13:25;;;;;;;33.42;4.93;;;;;;;;;;6090393;23;20082;-68
2023/01/28 07:15:59;;;;;;;29.70;6.70;;;;;;;;;;6089677;23;20024;-68
2023/01/28 07:18:33;;;;;;;27.38;4.70;;;;;;;;;;6112145;23;20041;-68
2023/01/28 07:21:20;;;;;;;28.02;4.85;;;;;;;;;;6119869;23;20060;-68
2023/01/28 07:23:54;;;;;;;23.85;4.47;;;;;;;;;;6119085;23;20030;-69
2023/01/28 07:26:29;;;;;;;37.50;4.93;;;;;;;;;;6148928;23;20021;-69
2023/01/28 07:28:56;;;;;;;39.78;5.90;;;;;;;;;;6149454;23;20534;-68
2023/01/28 07:31:23;;;;;;;21.88;4.82;;;;;;;;;;6149345;23;20092;-58
2023/01/28 07:33:57;;;;;;;34.53;5.60;;;;;;;;;;6149971;23;20025;-75
2023/01/28 07:36:24;;;;;;;41.38;5.20;;;;;;;;;;6148976;23;20028;-75
2023/01/28 07:38:58;;;;;;;21.35;4.47;;;;;;;;;;6150100;23;20049;-75
2023/01/28 07:41:25;;;;;;;23.60;3.88;;;;;;;;;;6149467;23;20185;-75
2023/01/28 07:43:52;;;;;;;35.92;5.43;;;;;;;;;;6148094;23;20025;-74
2023/01/28 07:46:26;;;;;;;28.15;4.20;;;;;;;;;;6149525;23;20360;-73
2023/01/28 07:48:53;;;;;;;26.60;4.82;;;;;;;;;;6150367;23;20088;-73
2023/01/28 07:51:27;;;;;;;27.38;4.75;;;;;;;;;;6149314;23;20116;-52
2023/01/28 07:53:54;;;;;;;28.45;4.68;;;;;;;;;;6149434;23;20036;-47
2023/01/28 07:56:30;;;;;;;33.50;5.00;;;;;;;;;;6150146;23;20040;-48
2023/01/28 07:59:04;;;;;;;35.50;4.85;;;;;;;;;;6149945;23;20101;-49
2023/01/28 08:01:38;;;;;;;20.40;4.55;;;;;;;;;;6147944;23;20088;-49
2023/01/28 08:04:12;;;;;;;25.80;4.10;;;;;;;;;;6150057;23;20408;-48
2023/01/28 08:06:39;;;;;;;27.80;4.20;;;;;;;;;;6148013;23;20025;-54
2023/01/28 08:09:07;;;;;;;25.23;4.22;;;;;;;;;;6150029;23;20092;-57
2023/01/28 08:11:41;;;;;;;33.67;4.75;;;;;;;;;;6148795;23;20027;-58
2023/01/28 08:14:09;;;;;;;22.98;3.90;;;;;;;;;;6149783;23;20376;-58
2023/01/28 08:16:43;;;;;;;23.67;4.68;;;;;;;;;;6148291;23;20021;-58
2023/01/28 08:19:17;;;;;;;28.85;5.30;;;;;;;;;;6092202;23;20105;-58
2023/01/28 08:21:51;;;;;;;22.15;4.38;;;;;;;;;;6089680;23;20022;-58
2023/01/28 08:24:18;;;;;;;29.63;4.57;;;;;;;;;;6090268;23;20126;-57
2023/01/28 08:26:47;;;;;;;30.98;4.75;;;;;;;;;;6090009;23;20062;-52
2023/01/28 08:29:21;;;;;;;30.30;4.32;;;;;;;;;;6090257;23;20093;-55
2023/01/28 08:31:48;;;;;;;17.70;3.60;;;;;;;;;;6090090;23;20118;-52
2023/01/28 08:34:22;;;;;;;26.20;4.05;;;;;;;;;;6089805;23;20034;-54
2023/01/28 08:36:49;;;;;;;25.25;3.72;;;;;;;;;;6086680;23;20536;-54
2023/01/28 08:39:16;;;;;;;25.00;4.00;;;;;;;;;;6089297;23;20106;-55
2023/01/28 08:41:50;;;;;;;24.65;5.03;;;;;;;;;;6083107;23;20077;-53
2023/01/28 08:44:17;;;;;;;29.60;3.90;;;;;;;;;;6075985;23;20452;-55
2023/01/28 08:46:51;;;;;;;18.70;4.03;;;;;;;;;;6089641;23;20523;-57
2023/01/28 08:49:18;;;;;;;25.13;5.38;;;;;;;;;;6088980;23;20106;-58
2023/01/28 08:51:45;;;;;;;26.95;4.85;;;;;;;;;;6088919;23;20748;-58
2023/01/28 08:54:19;;;;;;;36.85;4.50;;;;;;;;;;6090628;23;20105;-58
2023/01/28 08:56:47;;;;;;;22.90;4.15;;;;;;;;;;6088001;23;20363;-56
2023/01/28 08:59:21;;;;;;;21.77;3.33;;;;;;;;;;6088082;23;20024;-58
2023/01/28 09:01:48;;;;;;;36.05;4.60;;;;;;;;;;6088792;23;20061;-66
2023/01/28 09:04:22;;;;;;;33.67;4.78;;;;;;;;;;6088944;23;20034;-45
2023/01/28 09:06:49;;;;;;;25.98;4.63;;;;;;;;;;6089984;23;20125;-46
2023/01/28 09:09:16;;;;;;;19.98;4.68;;;;;;;;;;6089299;23;20421;-44
2023/01/28 09:11:50;;;;;;;29.98;4.13;;;;;;;;;;6086373;23;20022;-48
2023/01/28 09:14:17;;;;;;;27.38;4.35;;;;;;;;;;6077799;23;20469;-46
2023/01/28 09:16:51;;;;;;;39.85;4.82;;;;;;;;;;6089664;23;20053;-45
2023/01/28 09:19:25;;;;;;;32.58;4.43;;;;;;;;;;6117143;23;20108;-58
2023/01/28 09:21:59;;;;;;;22.25;4.43;;;;;;;;;;6119304;23;20415;-52
2023/01/28 09:24:26;;;;;;;34.53;4.28;;;;;;;;;;6116728;23;20101;-53
2023/01/28 09:26:53;;;;;;;33.00;4.40;;;;;;;;;;6118250;23;20121;-51
2023/01/28 09:29:27;;;;;;;31.15;4.43;;;;;;;;;;6116453;23;20026;-49
2023/01/28 09:31:54;;;;;;;32.75;4.78;;;;;;;;;;6118868;23;20029;-53
2023/01/28 09:34:28;;;;;;;22.10;4.30;;;;;;;;;;6146584;23;20057;-53
2023/01/28 09:36:55;;;;;;;36.75;4.80;;;;;;;;;;6148940;23;20025;-53
2023/01/28 09:39:24;;;;;;;29.25;4.60;;;;;;;;;;6146879;23;20535;-48
2023/01/28 09:42:04;;;;;;;27.83;4.05;;;;;;;;;;6147836;23;20109;-53
2023/01/28 09:44:52;;;;;;;30.35;5.05;;;;;;;;;;6121772;23;20025;-54
2023/01/28 09:47:30;;;;;;;31.30;4.90;;;;;;;;;;6150284;23;20068;-55
2023/01/28 09:49:58;;;;;;;31.98;4.25;;;;;;;;;;6146686;23;20021;-55
2023/01/28 09:52:35;;;;;;;23.58;3.90;;;;;;;;;;6147439;23;20057;-53
2023/01/28 09:55:04;;;;;;;40.30;5.20;;;;;;;;;;6150711;23;20031;-52
2023/01/28 09:57:37;;;;;;;29.75;6.18;;;;;;;;;;6148257;23;20100;-71
2023/01/28 10:00:14;;;;;;;28.85;5.15;;;;;;;;;;6149697;23;20104;-52
2023/01/28 10:02:50;;;;;;;33.92;4.68;;;;;;;;;;6149823;23;20503;-51
2023/01/28 10:05:39;;;;;;;37.42;5.70;;;;;;;;;;6149576;23;20053;-52
2023/01/28 10:08:36;;;;;;;46.03;5.47;;;;;;;;;;6148833;23;20385;-49
2023/01/28 10:11:13;;;;;;;34.45;5.80;;;;;;;;;;6123322;23;20032;-52
2023/01/28 10:13:51;;;;;;;39.15;5.28;;;;;;;;;;6146362;23;20018;-51
2023/01/28 10:16:44;;;;;;;39.80;5.75;;;;;;;;;;6148391;23;20104;-57
2023/01/28 10:19:30;;;;;;;38.38;5.35;;;;;;;;;;6089799;23;20101;-70
2023/01/28 10:22:01;;;;;;;34.63;5.07;;;;;;;;;;6089213;23;20557;-70
2023/01/28 10:24:37;;;;;;;38.67;5.90;;;;;;;;;;6083896;23;20030;-70
2023/01/28 10:27:18;;;;;;;44.40;5.28;;;;;;;;;;6088326;23;20023;-71
2023/01/28 10:29:52;;;;;;;42.03;5.35;;;;;;;;;;6086870;23;20097;-70
2023/01/28 10:32:29;;;;;;;39.58;6.18;;;;;;;;;;6090908;23;20030;-57
2023/01/28 10:35:03;;;;;;;41.00;5.75;;;;;;;;;;6090713;23;20100;-49
2023/01/28 10:37:37;;;;;;;35.03;5.68;;;;;;;;;;6089281;23;20057;-71
2023/01/28 10:40:15;;;;;;;36.55;5.93;;;;;;;;;;6090557;23;20069;-71
2023/01/28 10:42:49;;;;;;;43.33;6.10;;;;;;;;;;6087370;23;20082;-71
2023/01/28 10:45:34;;;;;;;39.47;6.20;;;;;;;;;;6088764;23;20026;-71
2023/01/28 10:48:20;;;;;;;34.25;5.75;;;;;;;;;;6087168;23;20136;-71
2023/01/28 10:50:52;;;;;;;46.05;6.18;;;;;;;;;;6090836;23;20208;-51
2023/01/28 10:53:42;;;;;;;56.72;6.03;;;;;;;;;;6090730;23;20027;-54
2023/01/28 10:56:11;;;;;;;49.20;5.43;;;;;;;;;;6088176;23;20101;-62
2023/01/28 10:59:04;;;;;;;58.38;6.47;;;;;;;;;;6087060;23;20089;-59
2023/01/28 11:01:57;;;;;;;47.70;6.00;;;;;;;;;;6088358;23;20037;-60
2023/01/28 11:04:32;;;;;;;50.38;6.50;;;;;;;;;;6065360;23;20093;-59
2023/01/28 11:07:00;;;;;;;54.55;7.75;;;;;;;;;;6090934;23;20022;-59
2023/01/28 11:09:35;;;;;;;35.90;5.85;;;;;;;;;;6090041;23;20057;-48
2023/01/28 11:12:12;;;;;;;56.80;7.20;;;;;;;;;;6089928;23;20069;-59
2023/01/28 11:15:05;;;;;;;45.92;5.70;;;;;;;;;;6089619;23;20150;-69
2023/01/28 11:17:42;;;;;;;50.55;6.05;;;;;;;;;;6093247;23;20025;-70
2023/01/28 11:20:24;;;;;;;38.83;5.68;;;;;;;;;;6120093;23;20393;-70
2023/01/28 11:22:52;;;;;;;37.28;6.30;;;;;;;;;;6119182;23;20026;-70
2023/01/28 11:25:29;;;;;;;67.57;6.93;;;;;;;;;;6118549;23;20283;-68
2023/01/28 11:27:56;;;;;;;54.45;6.65;;;;;;;;;;6118527;23;20032;-55
2023/01/28 11:30:35;;;;;;;57.83;6.50;;;;;;;;;;6118758;23;20109;-49
2023/01/28 11:33:02;;;;;;;54.10;6.45;;;;;;;;;;6119905;23;20090;-48
2023/01/28 11:35:36;;;;;;;44.15;6.10;;;;;;;;;;6148406;23;20101;-48
2023/01/28 11:38:21;;;;;;;48.42;6.28;;;;;;;;;;6148507;23;20542;-52
2023/01/28 11:40:48;;;;;;;;;;;;;;;;;;6148521;23;20100;-52
2023/01/28 11:43:26;;;;;;;39.03;6.35;;;;;;;;;;6148329;23;19963;-52
2023/01/28 11:46:12;;;;;;;49.75;6.22;;;;;;;;;;6145538;23;20089;-59
2023/01/28 11:48:46;;;;;;;48.30;7.55;;;;;;;;;;6147282;23;20483;-52
2023/01/28 11:51:32;;;;;;;62.45;7.63;;;;;;;;;;6147832;23;20104;-53
2023/01/28 11:54:06;;;;;;;61.30;7.30;;;;;;;;;;6140870;23;20049;-51
2023/01/28 11:56:33;;;;;;;63.17;7.90;;;;;;;;;;6147728;23;20025;-51
2023/01/28 11:59:01;;;;;;;80.32;8.10;;;;;;;;;;6145399;23;20057;-49
2023/01/28 12:01:52;;;;;;;54.38;7.75;;;;;;;;;;6148129;23;20109;-51
2023/01/28 12:04:37;;;;;;;59.35;7.30;;;;;;;;;;6149377;23;20103;-57
2023/01/28 12:07:11;;;;;;;61.05;7.40;;;;;;;;;;6147331;23;20096;-57
2023/01/28 12:09:59;;;;;;;65.97;8.77;;;;;;;;;;6146316;23;20100;-51
2023/01/28 12:12:49;;;;;;;54.90;7.45;;;;;;;;;;6142773;23;20068;-54
2023/01/28 12:15:24;;;;;;;64.32;7.05;;;;;;;;;;6147380;23;20100;-51
2023/01/28 12:18:14;;;;;;;53.20;8.68;;;;;;;;;;6143374;23;20028;-53
2023/01/28 12:21:07;;;;;;;57.28;7.60;;;;;;;;;;6148472;23;20390;-52
2023/01/28 12:23:44;;;;;;;56.20;7.03;;;;;;;;;;6145318;23;20018;-51
2023/01/28 12:26:15;;;;;;;67.68;9.43;;;;;;;;;;6148267;23;20026;-71
2023/01/28 12:28:52;;;;;;;60.70;7.60;;;;;;;;;;6147343;23;20028;-71
2023/01/28 12:31:25;;;;;;;58.13;6.82;;;;;;;;;;6142660;23;20056;-71
2023/01/28 12:34:18;;;;;;;55.15;8.70;;;;;;;;;;6147637;23;20022;-71
2023/01/28 12:36:54;;;;;;;69.20;8.07;;;;;;;;;;6142549;23;20036;-71
2023/01/28 12:39:31;;;;;;;59.75;7.70;;;;;;;;;;6147187;23;20113;-71
2023/01/28 12:42:04;;;;;;;67.60;8.02;;;;;;;;;;6146600;23;20018;-59
2023/01/28 12:44:41;;;;;;;55.67;7.43;;;;;;;;;;6147404;23;20104;-69
2023/01/28 12:47:10;;;;;;;47.72;7.38;;;;;;;;;;6147045;23;20513;-69
2023/01/28 12:49:48;;;;;;;57.35;7.13;;;;;;;;;;6147807;23;20355;-70
2023/01/28 12:52:17;;;;;;;51.25;6.78;;;;;;;;;;6146110;23;20463;-70
2023/01/28 12:54:57;;;;;;;50.95;7.45;;;;;;;;;;6147477;23;20109;-70
2023/01/28 12:57:26;;;;;;;71.70;8.13;;;;;;;;;;6147546;23;20060;-70
2023/01/28 13:00:16;;;;;;;61.60;7.60;;;;;;;;;;6146417;23;20056;-60
2023/01/28 13:02:46;;;;;;;42.17;6.50;;;;;;;;;;6147400;23;20071;-60
2023/01/28 13:05:22;;;;;;;53.33;6.68;;;;;;;;;;6147910;23;20030;-59
2023/01/28 13:07:53;;;;;;;52.95;6.85;;;;;;;;;;6147053;23;20060;-59
2023/01/28 13:10:36;;;;;;;52.30;6.63;;;;;;;;;;6147228;23;20028;-59
2023/01/28 13:13:05;;;;;;;44.13;7.13;;;;;;;;;;6147170;23;20032;-59
2023/01/28 13:15:40;;;;;;;57.25;7.18;;;;;;;;;;6147883;23;20026;-60
2023/01/28 13:18:37;;;;;;;52.83;7.82;;;;;;;;;;6129064;23;20511;-46
2023/01/28 13:21:23;;;;;;;43.40;6.65;;;;;;;;;;6087731;23;20046;-57
2023/01/28 13:24:02;;;;;;;49.95;6.97;;;;;;;;;;6088051;23;20049;-58
2023/01/28 13:26:42;;;;;;;55.28;6.72;;;;;;;;;;6085825;23;20027;-58
2023/01/28 13:29:09;;;;;;;52.00;5.97;;;;;;;;;;6090397;23;20050;-57
2023/01/28 13:31:44;;;;;;;43.08;6.18;;;;;;;;;;6088649;23;20054;-57
2023/01/28 13:34:28;;;;;;;50.63;6.63;;;;;;;;;;6088864;23;20416;-58
2023/01/28 13:37:15;;;;;;;46.95;7.03;;;;;;;;;;6089492;23;20095;-47
2023/01/28 13:39:46;;;;;;;37.03;5.72;;;;;;;;;;6088052;23;20591;-60
2023/01/28 13:42:21;;;;;;;39.97;5.70;;;;;;;;;;6088748;23;20109;-59
2023/01/28 13:44:49;;;;;;;47.78;6.72;;;;;;;;;;6089179;23;20077;-60
2023/01/28 13:47:30;;;;;;;39.47;5.35;;;;;;;;;;6088654;23;20131;-60
2023/01/28 13:50:05;;;;;;;45.22;5.85;;;;;;;;;;6088079;23;20101;-60
2023/01/28 13:53:02;;;;;;;40.50;5.57;;;;;;;;;;6089424;23;20019;-59
2023/01/28 13:55:35;;;;;;;37.53;5.28;;;;;;;;;;6088856;23;20054;-69
2023/01/28 13:58:24;;;;;;;41.80;5.25;;;;;;;;;;6088764;23;20410;-55
2023/01/28 14:00:57;;;;;;;43.78;5.80;;;;;;;;;;6088171;23;20401;-52
2023/01/28 14:03:31;;;;;;;35.88;4.65;;;;;;;;;;6086846;23;20019;-53
2023/01/28 14:06:01;;;;;;;30.58;5.43;;;;;;;;;;6089517;23;20077;-51
2023/01/28 14:08:41;;;;;;;34.92;5.05;;;;;;;;;;6088748;23;20030;-51
2023/01/28 14:11:30;;;;;;;36.78;4.68;;;;;;;;;;6089642;23;20029;-52
2023/01/28 14:14:22;;;;;;;39.20;5.05;;;;;;;;;;6087931;23;20105;-55
2023/01/28 14:17:08;;;;;;;32.97;4.82;;;;;;;;;;6088204;23;20093;-51
2023/01/28 14:19:49;;;;;;;42.42;5.00;;;;;;;;;;6115234;23;20110;-47
2023/01/28 14:22:18;;;;;;;27.65;4.30;;;;;;;;;;6117639;23;20072;-51
2023/01/28 14:24:53;;;;;;;36.80;4.85;;;;;;;;;;6147014;23;20096;-49
2023/01/28 14:27:20;;;;;;;45.33;5.03;;;;;;;;;;6147291;23;20132;-53
2023/01/28 14:30:03;;;;;;;34.05;5.10;;;;;;;;;;6146825;23;20137;-46
2023/01/28 14:32:31;;;;;;;40.17;4.68;;;;;;;;;;6144166;23;20036;-72
2023/01/28 14:35:08;;;;;;;29.20;4.70;;;;;;;;;;6145481;23;20072;-71
2023/01/28 14:37:36;;;;;;;20.20;4.10;;;;;;;;;;6148391;23;20168;-72
2023/01/28 14:40:12;;;;;;;33.50;4.50;;;;;;;;;;6145780;23;20026;-71
2023/01/28 14:42:41;;;;;;;27.77;3.85;;;;;;;;;;6146391;23;20434;-71
2023/01/28 14:45:33;;;;;;;33.58;4.32;;;;;;;;;;6147291;23;20455;-72
2023/01/28 14:48:10;;;;;;;27.95;3.85;;;;;;;;;;6145514;23;20538;-72
2023/01/28 14:51:02;;;;;;;21.50;3.67;;;;;;;;;;6145179;23;20626;-50
2023/01/28 14:53:29;;;;;;;28.45;3.90;;;;;;;;;;6145864;23;20033;-60
2023/01/28 14:56:07;;;;;;;24.70;3.92;;;;;;;;;;6145296;23;20033;-60
2023/01/28 14:58:46;;;;;;;22.42;4.25;;;;;;;;;;6145896;23;20243;-59
2023/01/28 15:01:22;;;;;;;27.73;4.20;;;;;;;;;;6145396;23;20096;-60
2023/01/28 15:03:49;;;;;;;29.33;4.15;;;;;;;;;;6144315;23;20029;-60
2023/01/28 15:06:19;;;;;;;40.65;4.13;;;;;;;;;;6145850;23;20203;-59
2023/01/28 15:08:53;;;;;;;24.65;3.90;;;;;;;;;;6144781;23;20064;-49
2023/01/28 15:11:24;;;;;;;26.85;3.55;;;;;;;;;;6146723;23;20096;-56
2023/01/28 15:13:58;;;;;;;41.00;4.53;;;;;;;;;;6144505;23;20043;-57
2023/01/28 15:16:29;;;;;;;21.08;3.67;;;;;;;;;;6141766;23;20036;-56
2023/01/28 15:19:09;;;;;;;37.03;4.20;;;;;;;;;;6144244;23;20061;-58
2023/01/28 15:21:37;;;;;;;29.33;3.78;;;;;;;;;;6146121;23;20065;-58
2023/01/28 15:24:13;;;;;;;23.77;3.28;;;;;;;;;;6146515;23;20366;-58
2023/01/28 15:26:46;;;;;;;30.77;3.60;;;;;;;;;;6145546;23;20030;-54
2023/01/28 15:29:30;;;;;;;31.48;4.65;;;;;;;;;;6146306;23;20028;-71
2023/01/28 15:31:58;;;;;;;11.50;2.35;;;;;;;;;;6146034;23;20100;-61
2023/01/28 15:34:32;;;;;;;26.58;3.42;;;;;;;;;;6146151;23;20120;-60
2023/01/28 15:37:00;;;;;;;17.55;2.63;;;;;;;;;;6145242;23;20029;-60
2023/01/28 15:39:28;;;;;;;26.00;3.63;;;;;;;;;;6145785;23;20475;-60
2023/01/28 15:42:04;;;;;;;23.25;3.42;;;;;;;;;;6144884;23;20513;-60